メインページ
METAR-TAF:

METAR-TAF

空港 :

Sussex Airport

Sussex, ニュージャージー州, アメリカ合衆国

緯度: 41-12-01N, 経度: 074-37-23W, 海抜: 128m

現時点の気象観測

当レポートは1時間11分前の14:53(UTC)に作成
無風
気温 -7°C
湿度 48%
気圧 1031 hPa
視程: 16.1km
高度7500ftの雲は散在している
高度9000ftの千切れ雲あり

METAR: KFWN 181453Z AUTO 00000KT 10SM SCT075 BKN090 M07/M16 A3045 RMK AO2 SLP320 T10671156 55031

時間: 11:04 (16:04 UTC)


TAF: 見つかりません

4,000以上の空港の気象観測と天気予報(METAR報とTAF報)

利用可能な観測所は地図上に黄色い丸と赤い丸で示す。

丸の上にカーソルを重ねると観測所名を参照できる。

次にクリックすると気象観測と天気予報を参照できる。

マップの切り替え:黒色「×」印の緑ボタンをクリックして拡大、「-」印の緑ボタンをクリックして縮小、緑色の三角印をクリックして隣りの地図に切り替え


METAR-TAF: